createdAt,value
2022-11-13T00:01:30.878Z,18.95
2022-11-13T00:03:58.372Z,17.37
2022-11-13T00:06:26.402Z,18.02
2022-11-13T00:08:54.082Z,17.30
2022-11-13T00:11:21.344Z,18.38
2022-11-13T00:13:48.729Z,23.30
2022-11-13T00:16:17.321Z,19.03
2022-11-13T00:18:44.525Z,16.27
2022-11-13T00:21:14.157Z,16.75
2022-11-13T00:23:43.190Z,15.98
2022-11-13T00:26:12.059Z,16.15
2022-11-13T00:28:38.738Z,18.73
2022-11-13T00:31:06.706Z,20.20
2022-11-13T00:34:09.120Z,20.40
2022-11-13T00:36:24.694Z,19.33
2022-11-13T00:38:54.641Z,19.85
2022-11-13T00:41:21.722Z,18.90
2022-11-13T00:43:48.242Z,16.77
2022-11-13T00:46:15.035Z,14.20
2022-11-13T00:48:41.544Z,13.55
2022-11-13T00:51:08.129Z,12.65
2022-11-13T00:53:34.668Z,11.53
2022-11-13T00:56:02.753Z,12.40
2022-11-13T00:58:29.483Z,12.75
2022-11-13T01:01:02.900Z,10.80
2022-11-13T01:03:29.496Z,11.25
2022-11-13T01:05:55.991Z,9.80
2022-11-13T01:08:22.526Z,11.60
2022-11-13T01:10:53.415Z,11.35
2022-11-13T01:13:21.834Z,11.88
2022-11-13T01:15:48.411Z,12.05
2022-11-13T01:18:14.915Z,11.13
2022-11-13T01:20:41.529Z,11.90
2022-11-13T01:23:08.398Z,9.90
2022-11-13T01:25:35.287Z,8.15
2022-11-13T01:28:01.787Z,8.75
2022-11-13T01:30:29.816Z,7.13
2022-11-13T01:32:56.495Z,7.15
2022-11-13T01:35:23.059Z,6.68
2022-11-13T01:37:49.590Z,6.65
2022-11-13T01:40:16.384Z,7.13
2022-11-13T01:42:43.064Z,6.70
2022-11-13T01:45:46.983Z,8.57
2022-11-13T01:48:15.339Z,7.88
2022-11-13T01:50:41.894Z,9.02
2022-11-13T01:53:08.803Z,7.72
2022-11-13T01:55:36.005Z,7.23
2022-11-13T01:58:04.913Z,6.75
2022-11-13T02:00:31.732Z,7.32
2022-11-13T02:02:58.253Z,6.72
2022-11-13T02:05:26.284Z,6.93
2022-11-13T02:07:52.864Z,6.80
2022-11-13T02:10:19.377Z,6.60
2022-11-13T02:12:49.995Z,6.90
2022-11-13T02:15:18.982Z,6.63
2022-11-13T02:17:48.574Z,6.28
2022-11-13T02:20:16.198Z,6.00
2022-11-13T02:22:54.547Z,6.50
2022-11-13T02:25:24.622Z,6.40
2022-11-13T02:27:51.455Z,6.68
2022-11-13T02:30:26.501Z,6.97
2022-11-13T02:32:55.022Z,6.37
2022-11-13T02:35:24.635Z,5.80
2022-11-13T02:37:51.185Z,6.40
2022-11-13T02:40:18.338Z,6.22
2022-11-13T02:42:46.352Z,6.10
2022-11-13T02:45:12.925Z,5.60
2022-11-13T02:47:39.411Z,5.85
2022-11-13T02:50:07.989Z,6.85
2022-11-13T02:52:34.641Z,6.68
2022-11-13T02:55:01.161Z,6.35
2022-11-13T02:57:27.780Z,6.10
2022-11-13T02:59:55.620Z,6.28
2022-11-13T03:02:22.237Z,6.45
2022-11-13T03:05:11.456Z,6.63
2022-11-13T03:07:35.231Z,6.68
2022-11-13T03:10:01.932Z,6.53
2022-11-13T03:12:28.507Z,5.85
2022-11-13T03:14:56.380Z,6.80
2022-11-13T03:17:22.903Z,6.22
2022-11-13T03:19:49.431Z,6.40
2022-11-13T03:22:16.000Z,6.90
2022-11-13T03:24:42.486Z,7.50
2022-11-13T03:27:09.167Z,6.80
2022-11-13T03:29:36.264Z,7.55
2022-11-13T03:32:04.509Z,6.85
2022-11-13T03:34:31.058Z,6.63
2022-11-13T03:36:57.747Z,6.70
2022-11-13T03:39:24.292Z,7.18
2022-11-13T03:41:51.027Z,6.18
2022-11-13T03:44:17.685Z,6.97
2022-11-13T03:46:44.234Z,6.70
2022-11-13T03:49:12.248Z,7.22
2022-11-13T03:51:38.757Z,6.95
2022-11-13T03:54:05.322Z,7.55
2022-11-13T03:56:31.953Z,7.15
2022-11-13T03:58:58.627Z,6.73
2022-11-13T04:01:25.219Z,6.85
2022-11-13T04:03:51.788Z,7.30
2022-11-13T04:06:19.633Z,6.65
2022-11-13T04:08:46.192Z,7.10
2022-11-13T04:11:13.442Z,6.90
2022-11-13T04:13:40.275Z,6.43
2022-11-13T04:16:07.422Z,7.18
2022-11-13T04:18:34.092Z,7.13
2022-11-13T04:21:01.307Z,6.78
2022-11-13T04:23:29.263Z,6.63
2022-11-13T04:25:55.785Z,7.72
2022-11-13T04:28:23.074Z,7.60
2022-11-13T04:30:50.012Z,6.90
2022-11-13T04:33:16.639Z,6.88
2022-11-13T04:35:43.268Z,7.27
2022-11-13T04:38:09.918Z,7.07
2022-11-13T04:40:37.822Z,6.78
2022-11-13T04:43:04.676Z,6.80
2022-11-13T04:45:31.157Z,7.07
2022-11-13T04:47:57.830Z,6.47
2022-11-13T04:50:24.706Z,6.03
2022-11-13T04:52:51.191Z,6.65
2022-11-13T04:55:17.953Z,6.43
2022-11-13T04:57:45.865Z,7.22
2022-11-13T05:00:13.353Z,6.20
2022-11-13T05:02:39.998Z,6.57
2022-11-13T05:05:07.319Z,6.82
2022-11-13T05:07:33.883Z,6.75
2022-11-13T05:10:00.520Z,8.90
2022-11-13T05:12:27.016Z,6.80
2022-11-13T05:14:54.879Z,6.22
2022-11-13T05:17:21.354Z,6.70
2022-11-13T05:19:47.858Z,6.90
2022-11-13T05:22:14.343Z,10.57
2022-11-13T05:24:40.949Z,10.33
2022-11-13T05:27:08.771Z,8.73
2022-11-13T05:29:38.197Z,7.75
2022-11-13T05:32:06.078Z,6.40
2022-11-13T05:34:32.673Z,6.30
2022-11-13T05:36:59.169Z,6.10
2022-11-13T05:39:25.807Z,6.43
2022-11-13T05:41:52.330Z,6.93
2022-11-13T05:44:18.830Z,6.72
2022-11-13T05:46:45.338Z,8.35
2022-11-13T05:49:13.172Z,8.93
2022-11-13T05:51:39.699Z,8.85
2022-11-13T05:54:06.195Z,9.02
2022-11-13T05:56:35.256Z,8.80
2022-11-13T05:59:03.396Z,9.35
2022-11-13T06:01:32.498Z,7.27
2022-11-13T06:04:00.769Z,7.10
2022-11-13T06:06:29.809Z,6.57
2022-11-13T06:08:58.014Z,7.35
2022-11-13T06:11:27.137Z,6.85
2022-11-13T06:13:55.428Z,6.87
2022-11-13T06:16:25.135Z,7.30
2022-11-13T06:18:54.872Z,7.30
2022-11-13T06:21:22.925Z,6.22
2022-11-13T06:23:50.887Z,6.43
2022-11-13T06:26:20.199Z,6.47
2022-11-13T06:28:50.232Z,6.22
2022-11-13T06:31:19.086Z,6.50
2022-11-13T06:33:45.784Z,7.03
2022-11-13T06:36:14.026Z,6.40
2022-11-13T06:38:42.036Z,6.50
2022-11-13T06:41:11.865Z,6.88
2022-11-13T06:43:38.382Z,6.68
2022-11-13T06:46:06.476Z,6.97
2022-11-13T06:48:33.259Z,7.63
2022-11-13T06:51:01.150Z,6.27
2022-11-13T06:53:27.841Z,6.50
2022-11-13T06:55:54.490Z,7.05
2022-11-13T06:58:22.403Z,7.15
2022-11-13T07:00:49.131Z,7.30
2022-11-13T07:03:16.561Z,6.83
2022-11-13T07:05:43.109Z,7.40
2022-11-13T07:08:09.792Z,7.47
2022-11-13T07:10:36.382Z,8.60
2022-11-13T07:13:03.217Z,10.10
2022-11-13T07:15:33.650Z,11.13
2022-11-13T07:18:00.297Z,10.25
2022-11-13T07:20:27.064Z,15.60
2022-11-13T07:22:55.369Z,12.80
2022-11-13T07:25:21.894Z,9.85
2022-11-13T07:27:48.416Z,8.13
2022-11-13T07:30:15.222Z,8.25
2022-11-13T07:32:43.076Z,7.43
2022-11-13T07:35:10.046Z,6.72
2022-11-13T07:37:36.847Z,6.78
2022-11-13T07:40:04.328Z,6.80
2022-11-13T07:42:31.082Z,7.40
2022-11-13T07:44:57.942Z,6.93
2022-11-13T07:47:24.552Z,6.35
2022-11-13T07:49:54.461Z,7.32
2022-11-13T07:52:24.495Z,7.60
2022-11-13T07:54:51.006Z,9.02
2022-11-13T07:57:17.526Z,9.40
2022-11-13T07:59:44.020Z,8.93
2022-11-13T08:02:14.649Z,10.70
2022-11-13T08:04:41.339Z,7.40
2022-11-13T08:07:11.246Z,6.60
2022-11-13T08:09:37.820Z,6.38
2022-11-13T08:12:04.607Z,7.60
2022-11-13T08:14:31.160Z,6.88
2022-11-13T08:16:57.666Z,7.60
2022-11-13T08:19:24.394Z,7.55
2022-11-13T08:21:50.945Z,6.57
2022-11-13T08:24:18.825Z,6.63
2022-11-13T08:26:45.346Z,6.25
2022-11-13T08:29:11.864Z,6.07
2022-11-13T08:31:38.537Z,6.72
2022-11-13T08:34:05.064Z,7.30
2022-11-13T08:36:31.745Z,6.07
2022-11-13T08:38:58.288Z,6.15
2022-11-13T08:41:26.343Z,6.17
2022-11-13T08:43:53.399Z,7.38
2022-11-13T08:46:19.932Z,6.57
2022-11-13T08:48:46.639Z,6.05
2022-11-13T08:51:13.149Z,7.78
2022-11-13T08:53:39.670Z,7.60
2022-11-13T08:56:06.814Z,6.90
2022-11-13T08:58:34.709Z,6.68
2022-11-13T09:01:02.181Z,6.80
2022-11-13T09:03:28.855Z,5.85
2022-11-13T09:05:55.415Z,6.00
2022-11-13T09:08:22.207Z,5.90
2022-11-13T09:10:48.709Z,5.70
2022-11-13T09:13:15.359Z,7.32
2022-11-13T09:15:43.204Z,6.80
2022-11-13T09:18:09.823Z,6.23
2022-11-13T09:20:36.536Z,6.90
2022-11-13T09:23:05.763Z,7.30
2022-11-13T09:25:37.582Z,7.60
2022-11-13T09:28:05.206Z,7.55
2022-11-13T09:30:31.877Z,7.10
2022-11-13T09:33:00.845Z,7.03
2022-11-13T09:35:28.286Z,6.90
2022-11-13T09:37:54.828Z,7.38
2022-11-13T09:40:27.809Z,7.85
2022-11-13T09:42:54.403Z,7.30
2022-11-13T09:45:21.168Z,6.82
2022-11-13T09:47:49.856Z,7.75
2022-11-13T09:50:22.228Z,7.28
2022-11-13T09:52:49.486Z,7.95
2022-11-13T09:55:19.129Z,6.93
2022-11-13T09:57:52.365Z,7.43
2022-11-13T10:00:21.139Z,7.78
2022-11-13T10:02:58.509Z,7.47
2022-11-13T10:05:39.806Z,8.77
2022-11-13T10:08:12.862Z,9.00
2022-11-13T10:10:53.855Z,9.75
2022-11-13T10:13:27.828Z,10.35
2022-11-13T10:16:03.890Z,9.95
2022-11-13T10:18:35.209Z,8.85
2022-11-13T10:21:12.397Z,11.17
2022-11-13T10:23:38.951Z,10.48
2022-11-13T10:26:14.104Z,8.50
2022-11-13T10:28:50.503Z,8.15
2022-11-13T10:31:18.075Z,9.57
2022-11-13T10:33:44.755Z,9.20
2022-11-13T10:36:26.388Z,8.18
2022-11-13T10:38:58.391Z,8.68
2022-11-13T10:41:24.997Z,7.80
2022-11-13T10:43:55.421Z,8.25
2022-11-13T10:46:25.723Z,7.57
2022-11-13T10:48:52.380Z,7.35
2022-11-13T10:51:24.245Z,7.95
2022-11-13T10:53:51.646Z,7.10
2022-11-13T10:56:26.736Z,7.55
2022-11-13T10:59:00.900Z,9.47
2022-11-13T11:01:27.907Z,11.07
2022-11-13T11:03:54.590Z,16.63
2022-11-13T11:06:56.398Z,12.07
2022-11-13T11:09:23.421Z,8.35
2022-11-13T11:12:10.073Z,7.60
2022-11-13T11:14:40.544Z,11.52
2022-11-13T11:17:09.032Z,15.43
2022-11-13T11:19:38.243Z,19.23
2022-11-13T11:22:11.570Z,12.23
2022-11-13T11:24:45.102Z,8.20
2022-11-13T11:27:16.268Z,9.50
2022-11-13T11:29:49.217Z,8.57
2022-11-13T11:32:22.124Z,8.25
2022-11-13T11:34:59.082Z,8.02
2022-11-13T11:37:33.154Z,7.93
2022-11-13T11:40:04.543Z,7.97
2022-11-13T11:42:38.563Z,8.05
2022-11-13T11:45:13.599Z,7.20
2022-11-13T11:47:40.389Z,8.02
2022-11-13T11:50:13.069Z,7.47
2022-11-13T11:52:56.543Z,8.07
2022-11-13T11:55:43.282Z,7.72
2022-11-13T11:58:20.362Z,7.07
2022-11-13T12:00:51.321Z,7.10
2022-11-13T12:03:37.818Z,7.20
2022-11-13T12:06:15.491Z,7.65
2022-11-13T12:08:48.162Z,7.53
2022-11-13T12:11:21.900Z,8.02
2022-11-13T12:13:57.758Z,8.20
2022-11-13T12:16:31.646Z,8.60
2022-11-13T12:19:04.174Z,8.35
2022-11-13T12:21:39.591Z,8.52
2022-11-13T12:24:30.999Z,9.07
2022-11-13T12:27:14.632Z,9.32
2022-11-13T12:29:55.516Z,9.37
2022-11-13T12:32:37.691Z,9.55
2022-11-13T12:35:09.915Z,9.35
2022-11-13T12:37:45.816Z,9.57
2022-11-13T12:40:21.346Z,16.27
2022-11-13T12:42:54.191Z,11.47
2022-11-13T12:45:26.172Z,10.20
2022-11-13T12:47:52.713Z,10.10
2022-11-13T12:50:31.454Z,9.23
2022-11-13T12:53:01.001Z,9.38
2022-11-13T12:55:30.853Z,9.73
2022-11-13T12:58:07.933Z,10.60
2022-11-13T13:00:36.183Z,10.57
2022-11-13T13:03:17.649Z,10.07
2022-11-13T13:06:10.202Z,10.75
2022-11-13T13:08:51.138Z,10.27
2022-11-13T13:11:25.476Z,10.45
2022-11-13T13:14:06.106Z,11.00
2022-11-13T13:16:32.636Z,10.98
2022-11-13T13:19:25.631Z,11.23
2022-11-13T13:21:52.204Z,10.43
2022-11-13T13:24:31.200Z,11.30
2022-11-13T13:26:59.999Z,11.10
2022-11-13T13:29:27.732Z,15.50
2022-11-13T13:32:05.357Z,17.30
2022-11-13T13:34:44.207Z,11.13
2022-11-13T13:37:21.779Z,9.75
2022-11-13T13:39:59.659Z,9.77
2022-11-13T13:42:45.590Z,9.70
2022-11-13T13:45:25.540Z,9.52
2022-11-13T13:47:54.953Z,20.07
2022-11-13T13:50:25.062Z,13.23
2022-11-13T13:52:55.760Z,11.77
2022-11-13T13:55:27.508Z,9.07
2022-11-13T13:57:55.601Z,10.55
2022-11-13T14:00:22.495Z,12.80
2022-11-13T14:02:51.126Z,12.35
2022-11-13T14:05:26.326Z,11.82
2022-11-13T14:07:53.047Z,10.00
2022-11-13T14:10:21.367Z,9.80
2022-11-13T14:12:47.966Z,9.87
2022-11-13T14:15:24.509Z,10.80
2022-11-13T14:17:51.039Z,10.57
2022-11-13T14:20:18.347Z,9.45
2022-11-13T14:22:51.713Z,10.07
2022-11-13T14:25:25.199Z,10.10
2022-11-13T14:27:52.277Z,10.38
2022-11-13T14:30:26.200Z,9.77
2022-11-13T14:32:53.516Z,10.30
2022-11-13T14:35:22.613Z,10.43
2022-11-13T14:37:50.330Z,9.93
2022-11-13T14:40:23.218Z,10.88
2022-11-13T14:42:53.145Z,12.00
2022-11-13T14:45:23.838Z,13.20
2022-11-13T14:47:58.670Z,15.13
2022-11-13T14:50:27.980Z,10.33
2022-11-13T14:52:59.858Z,10.80
2022-11-13T14:55:28.839Z,10.85
2022-11-13T14:57:55.547Z,10.88
2022-11-13T15:00:30.709Z,13.65
2022-11-13T15:02:57.579Z,11.90
2022-11-13T15:05:24.281Z,12.50
2022-11-13T15:07:52.697Z,11.57
2022-11-13T15:10:20.842Z,13.85
2022-11-13T15:12:47.377Z,13.68
2022-11-13T15:15:15.764Z,13.53
2022-11-13T15:17:43.944Z,12.77
2022-11-13T15:20:16.070Z,13.07
2022-11-13T15:22:42.603Z,13.00
2022-11-13T15:25:14.408Z,13.30
2022-11-13T15:27:43.369Z,12.17
2022-11-13T15:30:11.528Z,12.50
2022-11-13T15:32:38.196Z,12.38
2022-11-13T15:35:11.287Z,12.10
2022-11-13T15:37:38.263Z,11.80
2022-11-13T15:40:05.809Z,10.93
2022-11-13T15:42:34.506Z,20.40
2022-11-13T15:45:01.323Z,16.40
2022-11-13T15:47:29.617Z,18.25
2022-11-13T15:50:12.839Z,13.38
2022-11-13T15:52:44.882Z,8.50
2022-11-13T15:55:19.811Z,8.85
2022-11-13T15:57:46.642Z,12.13
2022-11-13T16:00:15.176Z,8.77
2022-11-13T16:02:41.662Z,8.38
2022-11-13T16:05:09.005Z,7.50
2022-11-13T16:07:38.731Z,6.10
2022-11-13T16:10:10.802Z,7.13
2022-11-13T16:12:37.354Z,5.90
2022-11-13T16:15:04.668Z,6.43
2022-11-13T16:17:39.416Z,4.00
2022-11-13T16:20:09.839Z,5.05
2022-11-13T16:22:36.347Z,6.38
2022-11-13T16:25:03.066Z,5.47
2022-11-13T16:27:32.361Z,5.40
2022-11-13T16:30:02.374Z,4.83
2022-11-13T16:32:33.018Z,4.65
2022-11-13T16:34:59.525Z,4.90
2022-11-13T16:37:26.208Z,4.55
2022-11-13T16:39:52.770Z,4.30
2022-11-13T16:42:19.322Z,2.80
2022-11-13T16:44:47.321Z,3.03
2022-11-13T16:47:21.789Z,2.15
2022-11-13T16:49:48.664Z,2.30
2022-11-13T16:52:15.381Z,2.45
2022-11-13T16:54:42.028Z,3.20
2022-11-13T16:57:10.151Z,5.03
2022-11-13T16:59:36.680Z,4.72
2022-11-13T17:02:12.434Z,4.57
2022-11-13T17:04:38.944Z,3.40
2022-11-13T17:07:05.516Z,3.50
2022-11-13T17:09:32.130Z,2.60
2022-11-13T17:11:58.665Z,3.13
2022-11-13T17:14:25.181Z,2.30
2022-11-13T17:16:51.678Z,2.30
2022-11-13T17:19:19.712Z,2.40
2022-11-13T17:21:46.226Z,2.80
2022-11-13T17:24:12.727Z,2.80
2022-11-13T17:26:39.262Z,2.40
2022-11-13T17:29:05.755Z,2.88
2022-11-13T17:31:32.383Z,2.83
2022-11-13T17:33:58.894Z,2.72
2022-11-13T17:36:26.809Z,4.97
2022-11-13T17:38:53.376Z,4.50
2022-11-13T17:41:19.894Z,3.45
2022-11-13T17:43:46.596Z,2.97
2022-11-13T17:46:16.397Z,3.80
2022-11-13T17:48:44.024Z,4.25
2022-11-13T17:51:12.591Z,3.28
2022-11-13T17:53:40.907Z,3.70
2022-11-13T17:56:10.044Z,3.40
2022-11-13T17:58:37.739Z,3.65
2022-11-13T18:01:05.911Z,4.30
2022-11-13T18:03:32.707Z,4.35
2022-11-13T18:06:03.888Z,4.82
2022-11-13T18:08:30.560Z,4.10
2022-11-13T18:10:58.778Z,4.32
2022-11-13T18:13:25.313Z,5.40
2022-11-13T18:15:51.857Z,5.32
2022-11-13T18:18:18.421Z,5.00
2022-11-13T18:20:44.952Z,3.97
2022-11-13T18:23:11.433Z,7.00
2022-11-13T18:25:39.605Z,11.88
2022-11-13T18:28:07.746Z,10.45
2022-11-13T18:30:34.248Z,5.50
2022-11-13T18:33:00.748Z,4.80
2022-11-13T18:35:27.254Z,5.32
2022-11-13T18:37:53.806Z,4.70
2022-11-13T18:40:20.345Z,5.85
2022-11-13T18:42:46.906Z,5.65
2022-11-13T18:45:15.618Z,5.17
2022-11-13T18:47:42.278Z,5.82
2022-11-13T18:50:09.261Z,5.78
2022-11-13T18:52:35.761Z,5.45
2022-11-13T18:55:02.363Z,5.85
2022-11-13T18:57:28.875Z,6.17
2022-11-13T18:59:55.530Z,6.45
2022-11-13T19:02:23.473Z,6.10
2022-11-13T19:04:50.072Z,5.78
2022-11-13T19:07:16.626Z,7.10
2022-11-13T19:09:43.164Z,6.37
2022-11-13T19:12:09.677Z,6.68
2022-11-13T19:14:36.341Z,6.70
2022-11-13T19:17:02.872Z,7.10
2022-11-13T19:19:30.776Z,7.10
2022-11-13T19:21:57.441Z,6.47
2022-11-13T19:24:24.120Z,7.00
2022-11-13T19:26:50.789Z,7.30
2022-11-13T19:29:17.345Z,6.90
2022-11-13T19:31:44.017Z,7.53
2022-11-13T19:34:11.144Z,7.40
2022-11-13T19:36:39.219Z,8.05
2022-11-13T19:39:05.735Z,7.63
2022-11-13T19:41:32.301Z,7.50
2022-11-13T19:43:59.170Z,8.57
2022-11-13T19:46:25.723Z,7.90
2022-11-13T19:48:52.787Z,8.57
2022-11-13T19:51:20.770Z,8.80
2022-11-13T19:53:52.867Z,8.60
2022-11-13T19:56:20.649Z,8.98
2022-11-13T19:58:48.637Z,8.47
2022-11-13T20:01:16.819Z,8.55
2022-11-13T20:03:43.584Z,8.68
2022-11-13T20:06:12.449Z,8.75
2022-11-13T20:08:39.030Z,9.15
2022-11-13T20:11:08.615Z,12.30
2022-11-13T20:13:35.897Z,11.52
2022-11-13T20:16:02.709Z,11.25
2022-11-13T20:18:29.909Z,11.52
2022-11-13T20:20:56.811Z,13.15
2022-11-13T20:23:24.002Z,10.13
2022-11-13T20:25:54.341Z,9.10
2022-11-13T20:28:22.773Z,10.05
2022-11-13T20:30:49.885Z,10.15
2022-11-13T20:33:22.146Z,10.82
2022-11-13T20:35:53.836Z,9.07
2022-11-13T20:38:20.346Z,9.60
2022-11-13T20:40:47.099Z,9.63
2022-11-13T20:43:13.771Z,9.95
2022-11-13T20:45:41.634Z,9.90
2022-11-13T20:48:08.275Z,10.43
2022-11-13T20:50:35.410Z,10.25
2022-11-13T20:53:01.941Z,11.02
2022-11-13T20:55:28.572Z,10.75
2022-11-13T20:57:55.195Z,9.88
2022-11-13T21:00:22.038Z,9.97
2022-11-13T21:02:50.474Z,10.35
2022-11-13T21:05:17.480Z,11.10
2022-11-13T21:07:44.166Z,10.10
2022-11-13T21:10:10.677Z,11.02
2022-11-13T21:12:37.252Z,10.73
2022-11-13T21:15:04.501Z,9.98
2022-11-13T21:17:31.032Z,11.13
2022-11-13T21:19:59.141Z,10.60
2022-11-13T21:22:25.649Z,11.48
2022-11-13T21:24:52.254Z,11.17
2022-11-13T21:27:18.795Z,10.43
2022-11-13T21:29:45.321Z,11.65
2022-11-13T21:32:11.926Z,11.25
2022-11-13T21:34:38.433Z,11.15
2022-11-13T21:37:06.333Z,10.97
2022-11-13T21:39:32.880Z,11.18
2022-11-13T21:41:59.538Z,11.45
2022-11-13T21:44:26.065Z,10.82
2022-11-13T21:46:52.581Z,10.88
2022-11-13T21:49:19.054Z,11.33
2022-11-13T21:51:45.650Z,11.85
2022-11-13T21:54:13.729Z,13.48
2022-11-13T21:56:40.414Z,12.75
2022-11-13T21:59:07.149Z,12.00
2022-11-13T22:01:38.582Z,11.60
2022-11-13T22:04:05.796Z,12.77
2022-11-13T22:06:34.158Z,11.20
2022-11-13T22:09:03.172Z,11.63
2022-11-13T22:11:33.293Z,11.93
2022-11-13T22:14:00.546Z,12.17
2022-11-13T22:16:28.863Z,11.38
2022-11-13T22:18:57.080Z,11.48
2022-11-13T22:21:25.142Z,10.38
2022-11-13T22:23:51.857Z,13.82
2022-11-13T22:26:19.012Z,11.47
2022-11-13T22:28:47.831Z,11.93
2022-11-13T22:31:16.275Z,11.38
2022-11-13T22:33:47.793Z,11.95
2022-11-13T22:36:18.189Z,11.38
2022-11-13T22:38:45.088Z,10.80
2022-11-13T22:41:16.510Z,10.80
2022-11-13T22:43:49.295Z,11.43
2022-11-13T22:46:17.777Z,11.52
2022-11-13T22:48:46.111Z,11.23
2022-11-13T22:51:14.424Z,11.00
2022-11-13T22:53:42.735Z,10.93
2022-11-13T22:56:11.789Z,10.55
2022-11-13T22:58:38.713Z,10.73
2022-11-13T23:01:07.995Z,10.73
2022-11-13T23:03:37.567Z,9.97
2022-11-13T23:06:04.975Z,9.90
2022-11-13T23:08:32.083Z,10.35
2022-11-13T23:10:58.908Z,10.90
2022-11-13T23:13:25.697Z,11.15
2022-11-13T23:15:52.239Z,10.93
2022-11-13T23:18:20.077Z,10.13
2022-11-13T23:20:48.143Z,11.70
2022-11-13T23:23:15.559Z,11.15
2022-11-13T23:25:42.239Z,10.68
2022-11-13T23:28:08.743Z,10.73
2022-11-13T23:30:35.511Z,10.68
2022-11-13T23:33:02.052Z,9.80
2022-11-13T23:35:29.953Z,9.85
2022-11-13T23:37:56.467Z,10.70
2022-11-13T23:40:23.008Z,9.63
2022-11-13T23:42:55.043Z,10.50
2022-11-13T23:45:22.214Z,9.63
2022-11-13T23:47:48.760Z,9.38
2022-11-13T23:50:15.300Z,10.35
2022-11-13T23:52:43.173Z,12.63
2022-11-13T23:55:10.257Z,10.88
2022-11-13T23:57:36.870Z,10.70
